Time;durP1;ratioP1;P1;durP2;ratioP2;P2;SDS_P1;SDS_P2;PMS_P1;PMS_P2;Temp;Humidity;BMP_temperature;BMP_pressure;BME280_temperature;BME280_humidity;BME280_pressure;Samples;Min_cycle;Max_cycle;Signal;HPM_P1;HPM_P2
2021/12/28 00:01:09;;;;;;;15.50;6.67;;;5.80;99.90;;;;;;6214881;23;20448;-79
2021/12/28 00:03:40;;;;;;;16.73;7.32;;;5.60;99.90;;;;;;6213516;23;20024;-79
2021/12/28 00:06:09;;;;;;;14.45;6.70;;;5.60;99.90;;;;;;6216230;23;20099;-80
2021/12/28 00:08:38;;;;;;;17.67;6.60;;;5.70;99.90;;;;;;6214076;23;20021;-79
2021/12/28 00:11:11;;;;;;;17.65;7.20;;;5.70;99.90;;;;;;6189428;23;20056;-80
2021/12/28 00:13:40;;;;;;;15.63;7.13;;;6.00;99.90;;;;;;6215716;23;20456;-79
2021/12/28 00:16:28;;;;;;;17.60;7.43;;;6.00;99.90;;;;;;6216069;23;20099;-79
2021/12/28 00:18:59;;;;;;;14.32;6.93;;;6.10;99.90;;;;;;6214438;23;20029;-79
2021/12/28 00:21:28;;;;;;;16.08;7.28;;;6.10;99.90;;;;;;6188938;23;20017;-80
2021/12/28 00:23:58;;;;;;;16.80;8.18;;;6.00;99.90;;;;;;6214148;23;20100;-79
2021/12/28 00:26:27;;;;;;;9.37;4.90;;;6.00;99.90;;;;;;6213720;23;20078;-80
2021/12/28 00:28:56;;;;;;;14.07;6.82;;;6.10;99.90;;;;;;6215563;23;20024;-79
2021/12/28 00:31:26;;;;;;;13.23;5.90;;;6.20;99.90;;;;;;6214618;23;20020;-80
2021/12/28 00:33:58;;;;;;;15.43;7.32;;;6.20;99.90;;;;;;6214632;23;20027;-79
2021/12/28 00:36:26;;;;;;;12.63;5.50;;;6.20;99.90;;;;;;6215908;23;20390;-79
2021/12/28 00:38:56;;;;;;;13.53;5.73;;;6.20;99.90;;;;;;6215226;23;20375;-79
2021/12/28 00:41:24;;;;;;;11.90;5.38;;;6.10;99.90;;;;;;6217090;23;20071;-79
2021/12/28 00:43:54;;;;;;;12.63;5.72;;;6.10;99.90;;;;;;6214914;23;20046;-79
2021/12/28 00:46:22;;;;;;;14.27;5.68;;;6.10;99.90;;;;;;6213769;23;20082;-80
2021/12/28 00:48:51;;;;;;;12.98;6.28;;;6.00;99.90;;;;;;6189661;23;20025;-79
2021/12/28 00:51:19;;;;;;;15.47;5.90;;;6.20;99.90;;;;;;6219178;23;20025;-80
2021/12/28 00:53:48;;;;;;;11.82;5.57;;;6.30;99.90;;;;;;6222291;23;20047;-80
2021/12/28 00:56:16;;;;;;;12.23;5.78;;;6.00;99.90;;;;;;6223025;23;20034;-80
2021/12/28 00:58:45;;;;;;;12.90;6.40;;;6.20;99.90;;;;;;6217370;23;20040;-80
2021/12/28 01:01:14;;;;;;;10.40;5.07;;;6.20;99.90;;;;;;6219504;23;20017;-80
2021/12/28 01:03:43;;;;;;;11.27;5.03;;;6.30;99.90;;;;;;6217397;23;20096;-79
2021/12/28 01:06:11;;;;;;;11.02;4.85;;;6.20;99.90;;;;;;6216537;23;20017;-80
2021/12/28 01:08:40;;;;;;;9.27;5.15;;;6.30;99.90;;;;;;6215780;23;20097;-79
2021/12/28 01:11:08;;;;;;;17.25;6.00;;;6.20;99.90;;;;;;6216753;23;20031;-80
2021/12/28 01:13:36;;;;;;;10.52;5.53;;;6.40;99.90;;;;;;6217617;23;20071;-79
2021/12/28 01:16:09;;;;;;;14.17;5.47;;;6.30;99.90;;;;;;6217884;23;20024;-80
2021/12/28 01:18:40;;;;;;;16.13;6.05;;;6.30;99.90;;;;;;6216457;23;20427;-79
2021/12/28 01:21:09;;;;;;;12.10;5.88;;;6.50;99.90;;;;;;6216736;23;20028;-79
2021/12/28 01:23:37;;;;;;;11.73;4.88;;;6.40;99.90;;;;;;6218261;23;20091;-80
2021/12/28 01:26:09;;;;;;;13.07;5.70;;;6.40;99.90;;;;;;6218310;23;20514;-79
2021/12/28 01:28:39;;;;;;;15.80;5.87;;;6.40;99.90;;;;;;6217770;23;20031;-79
2021/12/28 01:31:07;;;;;;;11.10;5.05;;;6.40;99.90;;;;;;6219525;23;20020;-80
2021/12/28 01:33:36;;;;;;;11.68;5.75;;;6.30;99.90;;;;;;6189709;23;20031;-80
2021/12/28 01:36:07;;;;;;;15.07;6.95;;;6.30;99.90;;;;;;6215619;23;20024;-79
2021/12/28 01:38:36;;;;;;;13.15;5.38;;;5.90;99.90;;;;;;6216199;23;20021;-80
2021/12/28 01:41:10;;;;;;;11.63;5.17;;;6.00;99.90;;;;;;6216361;23;20435;-80
2021/12/28 01:43:40;;;;;;;9.80;4.97;;;6.10;99.90;;;;;;6216084;23;20036;-80
2021/12/28 01:46:09;;;;;;;11.70;4.88;;;6.10;99.90;;;;;;6215485;23;20025;-80
2021/12/28 01:48:41;;;;;;;9.50;4.25;;;6.30;99.90;;;;;;6190881;23;20028;-80
2021/12/28 01:51:15;;;;;;;10.38;4.93;;;6.30;99.90;;;;;;6215585;23;20016;-79
2021/12/28 01:53:44;;;;;;;12.40;5.97;;;6.40;99.90;;;;;;6190144;23;20020;-79
2021/12/28 01:56:16;;;;;;;12.25;4.75;;;6.40;99.90;;;;;;6215162;23;20485;-79
2021/12/28 01:59:11;;;;;;;13.55;5.78;;;6.40;99.90;;;;;;6215697;23;20021;-79
2021/12/28 02:01:41;;;;;;;14.52;5.05;;;6.10;99.90;;;;;;6214888;23;20031;-80
2021/12/28 02:04:14;;;;;;;11.10;5.03;;;6.10;99.90;;;;;;6214463;23;20028;-79
2021/12/28 02:06:44;;;;;;;10.00;4.70;;;6.30;99.90;;;;;;6215246;23;20103;-79
2021/12/28 02:09:13;;;;;;;10.27;4.72;;;6.30;99.90;;;;;;6217088;23;20430;-79
2021/12/28 02:11:42;;;;;;;15.27;6.07;;;6.30;99.90;;;;;;6215378;23;20023;-79
2021/12/28 02:14:10;;;;;;;8.98;4.70;;;6.40;99.90;;;;;;6217985;23;20024;-79
2021/12/28 02:16:41;;;;;;;9.85;4.43;;;6.40;99.90;;;;;;6239915;23;20515;-79
2021/12/28 02:19:12;;;;;;;9.73;4.83;;;6.20;99.90;;;;;;6213609;23;20017;-79
2021/12/28 02:21:43;;;;;;;8.23;4.32;;;6.10;99.90;;;;;;6213498;23;20020;-79
2021/12/28 02:24:12;;;;;;;9.40;4.47;;;6.20;99.90;;;;;;6188820;23;20091;-79
2021/12/28 02:26:41;;;;;;;9.70;4.28;;;6.30;99.90;;;;;;6215053;23;20101;-79
2021/12/28 02:29:10;;;;;;;9.88;4.72;;;6.30;99.90;;;;;;6213291;23;20083;-80
2021/12/28 02:31:38;;;;;;;8.80;4.70;;;5.80;99.90;;;;;;6214245;23;20021;-79
2021/12/28 02:34:07;;;;;;;7.10;3.95;;;5.90;99.90;;;;;;6215578;23;20084;-79
2021/12/28 02:36:35;;;;;;;9.80;5.00;;;5.90;99.90;;;;;;6193304;23;20016;-79
2021/12/28 02:39:05;;;;;;;9.55;4.20;;;6.10;99.90;;;;;;6215644;23;20020;-80
2021/12/28 02:41:34;;;;;;;10.73;4.93;;;6.20;99.90;;;;;;6215835;23;20017;-79
2021/12/28 02:44:04;;;;;;;12.27;5.23;;;6.10;99.90;;;;;;6217784;23;20021;-79
2021/12/28 02:46:33;;;;;;;9.25;3.42;;;6.20;99.90;;;;;;6217758;23;20025;-80
2021/12/28 02:49:03;;;;;;;11.95;4.55;;;6.30;99.90;;;;;;6217840;23;20029;-79
2021/12/28 02:51:33;;;;;;;12.00;5.28;;;6.20;99.90;;;;;;6217488;23;20020;-80
2021/12/28 02:54:02;;;;;;;10.70;4.82;;;6.20;99.90;;;;;;6218916;23;20025;-80
2021/12/28 02:56:32;;;;;;;8.77;4.03;;;6.20;99.90;;;;;;6256823;23;20095;-79
2021/12/28 02:59:02;;;;;;;12.70;4.68;;;6.20;99.90;;;;;;6232953;23;20021;-80
2021/12/28 03:01:31;;;;;;;10.65;5.00;;;6.10;99.90;;;;;;6231551;23;20068;-80
2021/12/28 03:04:03;;;;;;;10.07;4.22;;;6.10;99.90;;;;;;6233520;23;20027;-80
2021/12/28 03:06:33;;;;;;;12.60;4.55;;;6.10;99.90;;;;;;6232335;23;20020;-80
2021/12/28 03:09:05;;;;;;;9.00;4.73;;;6.20;99.90;;;;;;6230139;23;20138;-80
2021/12/28 03:11:35;;;;;;;10.65;4.82;;;6.10;99.90;;;;;;6218283;23;20024;-80
2021/12/28 03:14:05;;;;;;;8.93;4.30;;;6.10;99.90;;;;;;6216800;23;20020;-80
2021/12/28 03:16:33;;;;;;;11.43;5.32;;;6.00;99.90;;;;;;6218461;23;20135;-80
2021/12/28 03:19:06;;;;;;;9.52;4.35;;;6.00;99.90;;;;;;6217733;23;20076;-80
2021/12/28 03:21:35;;;;;;;10.47;4.77;;;5.90;99.90;;;;;;6218776;23;20035;-79
2021/12/28 03:24:05;;;;;;;11.65;4.47;;;6.00;99.90;;;;;;6192428;23;20029;-80
2021/12/28 03:26:36;;;;;;;7.97;4.75;;;6.10;99.90;;;;;;6218197;23;20359;-80
2021/12/28 03:29:05;;;;;;;12.48;4.82;;;6.20;99.90;;;;;;6219600;23;20028;-81
2021/12/28 03:31:34;;;;;;;9.70;4.30;;;6.00;99.90;;;;;;6216968;23;20408;-80
2021/12/28 03:34:03;;;;;;;9.60;4.57;;;6.00;99.90;;;;;;6217405;23;20024;-80
2021/12/28 03:36:31;;;;;;;11.10;4.85;;;6.00;99.90;;;;;;6216814;23;20371;-80
2021/12/28 03:39:01;;;;;;;14.23;4.82;;;6.10;99.90;;;;;;6192090;23;20319;-79
2021/12/28 03:41:30;;;;;;;12.60;4.55;;;6.00;99.90;;;;;;6216952;23;20024;-80
2021/12/28 03:44:03;;;;;;;10.65;4.70;;;6.00;99.90;;;;;;6216184;23;20042;-80
2021/12/28 03:46:33;;;;;;;11.63;5.77;;;6.00;99.90;;;;;;6219195;23;20035;-79
2021/12/28 03:49:01;;;;;;;10.60;5.18;;;6.00;99.90;;;;;;6219377;23;20017;-80
2021/12/28 03:51:31;;;;;;;10.88;5.53;;;5.90;99.90;;;;;;6220738;23;20017;-80
2021/12/28 03:53:59;;;;;;;10.15;4.85;;;5.90;99.90;;;;;;6219372;23;20391;-80
2021/12/28 03:56:28;;;;;;;14.48;5.50;;;6.00;99.90;;;;;;6219601;23;20090;-80
2021/12/28 03:58:56;;;;;;;8.83;4.47;;;6.00;99.90;;;;;;6219935;23;20020;-80
2021/12/28 04:01:50;;;;;;;15.73;5.70;;;6.10;99.90;;;;;;6223238;23;20043;-80
2021/12/28 04:04:20;;;;;;;13.68;4.80;;;6.10;99.90;;;;;;6221327;23;20359;-80
2021/12/28 04:06:49;;;;;;;11.70;5.40;;;6.10;99.90;;;;;;6224389;23;20039;-80
2021/12/28 04:09:23;;;;;;;11.32;4.93;;;6.20;99.90;;;;;;6234731;23;20060;-79
2021/12/28 04:11:51;;;;;;;17.70;5.20;;;6.30;99.90;;;;;;6208852;23;20051;-79
2021/12/28 04:14:19;;;;;;;12.60;4.78;;;6.30;99.90;;;;;;6234294;23;20081;-80
2021/12/28 04:16:48;;;;;;;10.82;5.63;;;6.30;99.90;;;;;;6226784;23;20054;-79
2021/12/28 04:19:18;;;;;;;11.13;5.03;;;6.30;99.90;;;;;;6218810;23;20404;-79
2021/12/28 04:21:47;;;;;;;11.80;5.45;;;6.30;99.90;;;;;;6218245;23;20024;-79
2021/12/28 04:24:16;;;;;;;13.80;5.90;;;6.30;99.90;;;;;;6216243;23;20032;-79
2021/12/28 04:26:45;;;;;;;11.25;5.65;;;6.40;99.90;;;;;;6218239;23;20028;-79
2021/12/28 04:29:14;;;;;;;13.10;5.88;;;6.20;99.90;;;;;;6216690;23;20090;-79
2021/12/28 04:31:43;;;;;;;16.00;5.65;;;6.20;99.90;;;;;;6215386;23;20450;-79
2021/12/28 04:34:12;;;;;;;14.20;5.43;;;6.40;99.90;;;;;;6190545;23;20447;-79
2021/12/28 04:36:42;;;;;;;14.13;5.40;;;6.30;99.90;;;;;;6217279;23;20021;-79
2021/12/28 04:39:10;;;;;;;12.57;5.50;;;6.30;99.90;;;;;;6219194;23;20029;-80
2021/12/28 04:41:40;;;;;;;15.88;5.60;;;6.30;99.90;;;;;;6219330;23;20091;-79
2021/12/28 04:44:11;;;;;;;16.15;6.82;;;6.40;99.90;;;;;;6214782;23;20103;-80
2021/12/28 04:47:05;;;;;;;14.70;6.60;;;6.20;99.90;;;;;;6216358;23;20546;-79
2021/12/28 04:49:35;;;;;;;13.47;6.20;;;6.40;99.90;;;;;;6216401;23;20024;-79
2021/12/28 04:52:06;;;;;;;16.90;6.57;;;6.50;99.90;;;;;;6219629;23;20388;-79
2021/12/28 04:54:36;;;;;;;17.67;6.43;;;6.50;99.90;;;;;;6213733;23;20031;-79
2021/12/28 04:57:06;;;;;;;13.52;5.35;;;6.50;99.90;;;;;;6188282;23;20028;-79
2021/12/28 04:59:35;;;;;;;18.48;7.20;;;6.50;99.90;;;;;;6213565;23;20411;-78
2021/12/28 05:02:04;;;;;;;13.00;5.37;;;6.40;99.90;;;;;;6212587;23;20032;-79
2021/12/28 05:04:32;;;;;;;12.13;5.38;;;6.40;99.90;;;;;;6213269;23;20414;-78
2021/12/28 05:07:00;;;;;;;18.10;5.45;;;6.30;99.90;;;;;;6213675;23;20031;-79
2021/12/28 05:09:30;;;;;;;15.57;6.50;;;6.40;99.90;;;;;;6213772;23;20095;-79
2021/12/28 05:11:59;;;;;;;19.65;6.80;;;6.30;99.90;;;;;;6188935;23;20411;-79
2021/12/28 05:14:28;;;;;;;16.33;8.27;;;6.30;99.90;;;;;;6188506;23;20027;-78
2021/12/28 05:16:57;;;;;;;17.30;7.05;;;6.30;99.90;;;;;;6215411;23;20092;-79
2021/12/28 05:19:26;;;;;;;13.95;6.28;;;6.20;99.90;;;;;;6212891;23;20063;-79
2021/12/28 05:21:55;;;;;;;16.38;6.22;;;6.10;99.90;;;;;;6215479;23;20024;-79
2021/12/28 05:24:24;;;;;;;15.80;5.40;;;6.40;99.90;;;;;;6214760;23;20032;-79
2021/12/28 05:26:54;;;;;;;17.93;6.03;;;6.50;99.90;;;;;;6189293;23;20442;-79
2021/12/28 05:29:22;;;;;;;15.35;6.50;;;6.40;99.90;;;;;;6215996;23;20031;-79
2021/12/28 05:31:51;;;;;;;13.02;6.28;;;6.40;99.90;;;;;;6215208;23;20024;-79
2021/12/28 05:34:20;;;;;;;17.67;6.90;;;6.50;99.90;;;;;;6216205;23;20025;-79
2021/12/28 05:36:49;;;;;;;11.20;5.35;;;6.40;99.90;;;;;;6214433;23;20099;-79
2021/12/28 05:39:17;;;;;;;14.93;5.43;;;6.40;99.90;;;;;;6213773;23;20478;-78
2021/12/28 05:41:47;;;;;;;22.58;8.52;;;6.50;99.90;;;;;;6214717;23;20016;-79
2021/12/28 05:44:18;;;;;;;14.90;5.75;;;6.50;99.90;;;;;;6215136;23;20024;-79
2021/12/28 05:46:49;;;;;;;17.02;7.05;;;6.50;99.90;;;;;;6214994;23;20036;-78
2021/12/28 05:49:18;;;;;;;14.98;6.13;;;6.60;99.90;;;;;;6215430;23;20031;-79
2021/12/28 05:51:49;;;;;;;17.10;6.30;;;6.70;99.90;;;;;;6216353;23;20025;-79
2021/12/28 05:54:19;;;;;;;12.45;6.03;;;6.70;99.90;;;;;;6220065;23;20020;-79
2021/12/28 05:56:48;;;;;;;14.48;4.72;;;6.70;99.90;;;;;;6218081;23;20017;-79
2021/12/28 05:59:17;;;;;;;15.05;5.47;;;6.60;99.90;;;;;;6216243;23;20525;-79
2021/12/28 06:01:46;;;;;;;17.60;7.15;;;6.70;99.90;;;;;;6218191;23;20147;-79
2021/12/28 06:04:16;;;;;;;18.90;7.33;;;6.70;99.90;;;;;;6216359;23;20020;-80
2021/12/28 06:06:44;;;;;;;19.02;6.95;;;6.70;99.90;;;;;;6222026;23;20032;-80
2021/12/28 06:09:13;;;;;;;18.88;5.68;;;6.60;99.90;;;;;;6217210;23;20383;-79
2021/12/28 06:11:42;;;;;;;17.30;5.25;;;6.70;99.90;;;;;;6217441;23;20084;-79
2021/12/28 06:14:10;;;;;;;12.40;5.38;;;6.80;99.90;;;;;;6231293;23;20035;-80
2021/12/28 06:16:41;;;;;;;13.80;5.60;;;6.80;99.90;;;;;;6232313;23;20072;-79
2021/12/28 06:19:10;;;;;;;15.02;5.43;;;6.60;99.90;;;;;;6229570;23;20455;-80
2021/12/28 06:21:39;;;;;;;17.60;4.88;;;6.60;99.90;;;;;;6196347;23;20025;-80
2021/12/28 06:24:08;;;;;;;14.80;5.80;;;6.70;99.90;;;;;;6222130;23;20439;-79
2021/12/28 06:26:38;;;;;;;12.85;5.43;;;6.60;99.90;;;;;;6242721;23;20032;-79
2021/12/28 06:29:08;;;;;;;14.27;5.50;;;6.60;99.90;;;;;;6217712;23;20020;-80
2021/12/28 06:31:37;;;;;;;12.30;5.55;;;6.50;99.90;;;;;;6215178;23;20025;-79
2021/12/28 06:34:07;;;;;;;13.98;5.93;;;6.60;99.90;;;;;;6222221;23;20020;-80
2021/12/28 06:36:37;;;;;;;17.25;6.40;;;6.70;99.90;;;;;;6238628;23;20036;-81
2021/12/28 06:39:06;;;;;;;13.23;5.50;;;6.80;99.90;;;;;;6237313;23;20048;-81
2021/12/28 06:41:35;;;;;;;13.37;5.20;;;6.60;99.90;;;;;;6238658;23;20052;-81
2021/12/28 06:44:04;;;;;;;14.55;6.03;;;6.60;99.90;;;;;;6238196;23;20024;-81
2021/12/28 06:46:57;;;;;;;13.95;4.68;;;6.60;99.90;;;;;;6239914;23;20043;-80
2021/12/28 06:49:28;;;;;;;15.68;5.55;;;6.60;99.90;;;;;;6212602;23;20075;-81
2021/12/28 06:51:56;;;;;;;14.70;5.63;;;6.70;99.90;;;;;;6239907;23;20040;-81
2021/12/28 06:54:28;;;;;;;13.33;6.33;;;6.70;99.90;;;;;;6238668;23;20100;-81
2021/12/28 06:56:57;;;;;;;13.15;5.95;;;6.60;99.90;;;;;;6239488;23;20044;-81
2021/12/28 06:59:25;;;;;;;12.95;5.82;;;6.50;99.90;;;;;;6233192;23;20096;-80
2021/12/28 07:01:54;;;;;;;14.82;5.43;;;6.60;99.90;;;;;;6212129;23;20025;-80
2021/12/28 07:04:22;;;;;;;12.57;6.18;;;6.60;99.90;;;;;;6225856;23;20013;-80
2021/12/28 07:06:52;;;;;;;11.60;5.33;;;6.60;99.90;;;;;;6233399;23;20024;-80
2021/12/28 07:09:20;;;;;;;14.57;5.55;;;6.50;99.90;;;;;;6205871;23;20091;-80
2021/12/28 07:11:49;;;;;;;11.32;4.80;;;6.60;99.90;;;;;;6232793;23;20025;-81
2021/12/28 07:14:17;;;;;;;11.70;5.18;;;6.60;99.90;;;;;;6229311;23;20024;-81
2021/12/28 07:16:47;;;;;;;12.68;4.63;;;6.60;99.90;;;;;;6202581;23;20039;-81
2021/12/28 07:19:15;;;;;;;14.73;5.00;;;6.70;99.90;;;;;;6225737;23;20059;-80
2021/12/28 07:21:44;;;;;;;9.80;4.55;;;6.70;99.90;;;;;;6234794;23;20021;-81
2021/12/28 07:24:14;;;;;;;11.27;5.72;;;6.60;99.90;;;;;;6231440;23;20428;-81
2021/12/28 07:26:44;;;;;;;12.18;5.57;;;6.60;99.90;;;;;;6234022;23;20025;-81
2021/12/28 07:29:13;;;;;;;11.35;5.50;;;6.60;99.90;;;;;;6238091;23;20009;-81
2021/12/28 08:01:19;;;;;;;8.60;3.72;;;6.20;99.90;;;;;;6117948;23;20663;-79
2021/12/28 08:07:19;;;;;;;7.67;3.43;;;6.20;99.90;;;;;;6122614;23;20022;-80
2021/12/28 08:09:50;;;;;;;10.75;4.28;;;6.40;99.90;;;;;;6124333;23;20022;-81
2021/12/28 08:27:14;;;;;;;12.55;4.63;;;6.70;99.90;;;;;;6191566;23;20045;-81
2021/12/28 08:29:51;;;;;;;8.65;4.40;;;6.60;99.90;;;;;;6149762;23;20022;-79
2021/12/28 08:36:29;;;;;;;7.82;3.47;;;6.40;99.90;;;;;;6174646;23;20033;-79
2021/12/28 08:38:58;;;;;;;8.47;4.20;;;6.30;99.90;;;;;;6116863;23;20061;-79
2021/12/28 08:41:27;;;;;;;10.27;4.32;;;6.50;99.90;;;;;;6137250;23;20085;-79
2021/12/28 08:43:56;;;;;;;10.75;3.78;;;6.40;99.90;;;;;;6173581;23;20025;-80
2021/12/28 08:46:25;;;;;;;9.60;4.15;;;6.50;99.90;;;;;;6129394;23;20022;-77
2021/12/28 08:48:55;;;;;;;10.30;4.25;;;6.30;99.90;;;;;;6121639;23;20032;-79
2021/12/28 08:51:23;;;;;;;12.33;4.37;;;6.50;99.90;;;;;;6168560;23;20074;-80
2021/12/28 08:53:53;;;;;;;9.93;3.70;;;6.60;99.90;;;;;;6169366;23;20025;-79
2021/12/28 08:56:21;;;;;;;8.25;3.60;;;6.50;99.90;;;;;;6146143;23;20029;-79
2021/12/28 08:58:51;;;;;;;7.20;3.33;;;6.50;99.90;;;;;;6172373;23;20036;-79
2021/12/28 09:01:19;;;;;;;7.55;3.17;;;6.50;99.90;;;;;;6151799;23;20049;-80
2021/12/28 09:03:48;;;;;;;6.73;3.83;;;6.50;99.90;;;;;;6139853;23;20033;-80
2021/12/28 09:06:17;;;;;;;5.68;3.20;;;6.40;99.90;;;;;;6160740;23;20381;-79
2021/12/28 09:09:03;;;;;;;10.05;4.30;;;6.60;99.90;;;;;;6143679;23;20018;-82
2021/12/28 10:23:03;;;;;;;3.23;1.10;;;7.50;99.90;;;;;;6021286;23;20099;-77
2021/12/28 11:19:03;;;;;;;1.07;0.30;;;8.40;99.90;;;;;;6230995;23;20009;-79
2021/12/28 11:49:36;;;;;;;2.33;0.80;;;8.60;99.90;;;;;;6170691;23;20018;-81
2021/12/28 14:48:38;;;;;;;6.65;1.92;;;9.60;99.90;;;;;;6228146;22;20028;-80
2021/12/28 14:52:58;;;;;;;3.58;1.17;;;9.50;99.90;;;;;;6239838;23;20018;-80
2021/12/28 15:05:18;;;;;;;3.92;1.33;;;9.60;99.90;;;;;;6191854;22;20013;-83
2021/12/28 15:12:41;;;;;;;5.03;1.55;;;9.70;99.90;;;;;;6126035;23;20035;-78
2021/12/28 15:15:26;;;;;;;3.70;1.30;;;9.70;99.90;;;;;;6151572;23;20021;-79
2021/12/28 15:18:05;;;;;;;4.05;1.45;;;9.60;99.90;;;;;;6184008;23;20027;-80
2021/12/28 15:21:42;;;;;;;4.57;1.30;;;9.60;99.90;;;;;;6184746;23;20482;-77
2021/12/28 15:24:11;;;;;;;2.88;1.08;;;9.60;99.90;;;;;;6148375;23;20052;-77
2021/12/28 15:26:41;;;;;;;3.08;1.67;;;9.70;99.90;;;;;;6196144;23;20021;-78
2021/12/28 16:17:15;;;;;;;5.05;2.10;;;9.80;99.90;;;;;;6200600;23;20021;-79
2021/12/28 16:23:15;;;;;;;4.32;1.52;;;9.80;99.90;;;;;;6204348;22;20021;-78
2021/12/28 17:00:30;;;;;;;0.82;0.20;;;8.70;99.90;;;;;;6137529;23;20120;-77
2021/12/28 17:04:28;;;;;;;1.73;0.70;;;8.70;99.90;;;;;;6102215;23;20053;-77
2021/12/28 17:10:13;;;;;;;3.45;0.88;;;8.80;99.90;;;;;;6088703;23;20104;-79
2021/12/28 17:12:43;;;;;;;2.75;0.70;;;8.60;99.90;;;;;;6105934;23;20442;-76
2021/12/28 17:15:12;;;;;;;2.17;0.55;;;8.60;99.90;;;;;;6112704;23;20054;-77
2021/12/28 17:18:24;;;;;;;1.40;0.40;;;8.60;99.90;;;;;;6118269;23;20026;-78
2021/12/28 17:29:47;;;;;;;1.83;0.88;;;9.10;99.90;;;;;;6236416;23;20008;-80
2021/12/28 17:32:59;;;;;;;3.25;0.55;;;9.20;99.90;;;;;;6185663;23;20052;-80
2021/12/28 17:35:49;;;;;;;2.08;0.63;;;9.10;99.90;;;;;;6120999;23;20057;-79
2021/12/28 17:38:45;;;;;;;1.40;0.33;;;9.00;99.90;;;;;;6121740;23;20010;-79
2021/12/28 17:41:14;;;;;;;1.00;0.20;;;8.90;99.90;;;;;;6153600;23;20021;-80
2021/12/28 17:43:43;;;;;;;2.10;0.43;;;8.80;99.90;;;;;;6155093;23;20029;-79
2021/12/28 17:46:14;;;;;;;2.60;0.43;;;8.80;99.90;;;;;;6155147;23;20021;-82
2021/12/28 17:48:48;;;;;;;5.90;0.70;;;8.90;99.90;;;;;;6143873;23;20021;-77
2021/12/28 17:51:24;;;;;;;2.70;0.70;;;8.90;99.90;;;;;;6112390;23;20483;-78
2021/12/28 17:53:55;;;;;;;4.50;0.65;;;9.00;99.90;;;;;;6145176;23;20169;-77
2021/12/28 18:15:53;;;;;;;1.55;0.40;;;8.80;99.90;;;;;;6159867;23;20028;-80
2021/12/28 18:18:26;;;;;;;2.78;0.93;;;8.80;99.90;;;;;;6200823;23;20028;-79
2021/12/28 18:20:57;;;;;;;2.20;0.40;;;8.80;99.90;;;;;;6168255;23;20052;-80
2021/12/28 18:23:40;;;;;;;2.40;0.30;;;8.90;99.90;;;;;;6182509;23;20077;-79
2021/12/28 18:26:25;;;;;;;1.65;0.40;;;8.80;99.90;;;;;;6205685;23;20076;-79
2021/12/28 18:49:46;;;;;;;2.30;0.63;;;8.40;99.90;;;;;;6209407;23;20024;-82
2021/12/28 19:49:47;;;;;;;3.00;0.80;;;8.10;99.90;;;;;;6089082;23;20033;-79
2021/12/28 20:04:51;;;;;;;5.78;1.38;;;8.30;99.90;;;;;;6232598;22;20024;-81
2021/12/28 20:29:10;;;;;;;9.67;0.93;;;8.50;99.90;;;;;;6236292;23;20064;-83
2021/12/28 20:40:43;;;;;;;2.22;0.50;;;8.50;99.90;;;;;;6212080;22;20009;-82
2021/12/28 20:43:13;;;;;;;5.70;0.90;;;8.70;99.90;;;;;;6160863;23;20021;-82
2021/12/28 20:45:55;;;;;;;4.97;0.77;;;8.80;99.90;;;;;;6185696;23;20013;-82
2021/12/28 20:49:16;;;;;;;3.13;0.85;;;8.90;99.90;;;;;;6185493;23;20012;-81
2021/12/28 20:52:58;;;;;;;3.90;1.15;;;8.90;99.90;;;;;;6167244;23;20009;-81
2021/12/28 20:56:17;;;;;;;4.78;0.88;;;8.90;99.90;;;;;;6185613;23;20071;-83
2021/12/28 20:59:15;;;;;;;5.67;0.53;;;8.80;99.90;;;;;;6162893;23;20009;-82
2021/12/28 21:40:43;;;;;;;7.90;0.90;;;8.30;99.90;;;;;;6012509;23;20099;-81
2021/12/28 21:44:42;;;;;;;3.25;0.82;;;8.30;99.90;;;;;;6012316;23;20027;-81
